Terminal Aerodrome Forecast
Issued by NWS

Home | Current Version | Previous Version | Text Only | Print | Product List | Glossary On
Versions: 1 2 3 4 5 6 7 8 9 10 11 12
000
FTUS45 KLKN 181723
TAFWMC
TAF
KWMC 181723Z 1818/1918 30012G22KT P6SM VCSH SCT040 OVC100
      TEMPO 1819/1823 3SM -SHSN OVC030
     FM190600 31010KT P6SM VCSH SCT040 BKN070=

USA.gov is the U.S. government's official web portal to all federal, state and local government web resources and services.